createdAt,value
2017-11-20T00:00:53.879Z,82.40
2017-11-20T00:03:21.440Z,81.80
2017-11-20T00:05:48.977Z,81.40
2017-11-20T00:08:16.517Z,81.40
2017-11-20T00:10:44.076Z,81.30
2017-11-20T00:13:11.621Z,81.10
2017-11-20T00:15:39.160Z,81.90
2017-11-20T00:18:06.704Z,81.50
2017-11-20T00:20:34.229Z,80.90
2017-11-20T00:23:01.761Z,81.10
2017-11-20T00:25:29.313Z,81.50
2017-11-20T00:27:56.850Z,81.10
2017-11-20T00:30:24.385Z,81.30
2017-11-20T00:32:51.924Z,81.70
2017-11-20T00:35:19.462Z,81.80
2017-11-20T00:37:47.000Z,81.70
2017-11-20T00:40:14.561Z,81.50
2017-11-20T00:42:42.085Z,81.80
2017-11-20T00:45:09.625Z,81.10
2017-11-20T00:47:37.185Z,81.20
2017-11-20T00:50:04.717Z,80.70
2017-11-20T00:52:32.244Z,81.30
2017-11-20T00:55:00.567Z,81.10
2017-11-20T00:57:28.098Z,80.60
2017-11-20T00:59:55.632Z,80.10
2017-11-20T01:02:23.171Z,80.10
2017-11-20T01:04:50.701Z,80.20
2017-11-20T01:07:18.236Z,79.50
2017-11-20T01:09:46.554Z,80.60
2017-11-20T01:12:14.090Z,80.60
2017-11-20T01:14:41.619Z,79.20
2017-11-20T01:17:09.168Z,79.50
2017-11-20T01:19:36.693Z,79.80
2017-11-20T01:22:04.220Z,79.60
2017-11-20T01:24:32.533Z,80.90
2017-11-20T01:27:00.083Z,81.60
2017-11-20T01:29:27.859Z,81.30
2017-11-20T01:31:55.420Z,80.30
2017-11-20T01:34:22.973Z,80.80
2017-11-20T01:36:50.522Z,81.30
2017-11-20T01:39:18.079Z,80.10
2017-11-20T01:41:45.620Z,80.30
2017-11-20T01:44:13.154Z,79.90
2017-11-20T01:46:40.728Z,80.50
2017-11-20T01:49:08.256Z,80.60
2017-11-20T01:51:35.780Z,79.30
2017-11-20T01:54:03.341Z,80.10
2017-11-20T01:56:30.876Z,80.00
2017-11-20T01:58:59.171Z,81.60
2017-11-20T02:01:26.756Z,80.90
2017-11-20T02:03:54.337Z,80.70
2017-11-20T02:06:21.911Z,79.50
2017-11-20T02:08:49.493Z,79.80
2017-11-20T02:11:17.036Z,80.20
2017-11-20T02:13:46.694Z,80.20
2017-11-20T02:16:16.610Z,81.00
2017-11-20T02:18:47.649Z,80.80
2017-11-20T02:21:17.409Z,80.00
2017-11-20T02:23:44.933Z,80.90
2017-11-20T02:26:12.464Z,80.70
2017-11-20T02:28:40.026Z,80.00
2017-11-20T02:31:07.557Z,79.20
2017-11-20T02:33:35.082Z,78.80
2017-11-20T02:36:02.630Z,79.10
2017-11-20T02:38:30.924Z,80.30
2017-11-20T02:40:58.448Z,79.90
2017-11-20T02:43:26.005Z,79.60
2017-11-20T02:45:53.533Z,80.00
2017-11-20T02:48:21.828Z,79.10
2017-11-20T02:50:49.374Z,79.00
2017-11-20T02:53:16.902Z,80.00
2017-11-20T02:55:44.429Z,79.30
2017-11-20T02:58:12.753Z,79.30
2017-11-20T03:00:40.281Z,79.00
2017-11-20T03:03:07.804Z,78.60
2017-11-20T03:05:35.348Z,80.00
2017-11-20T03:08:02.872Z,79.50
2017-11-20T03:10:30.404Z,80.00
2017-11-20T03:12:58.727Z,79.50
2017-11-20T03:15:26.262Z,79.90
2017-11-20T03:17:53.777Z,79.20
2017-11-20T03:20:21.326Z,79.80
2017-11-20T03:22:48.843Z,79.20
2017-11-20T03:25:16.391Z,80.30
2017-11-20T03:27:43.945Z,79.50
2017-11-20T03:30:12.225Z,80.40
2017-11-20T03:32:39.748Z,79.90
2017-11-20T03:35:08.057Z,78.80
2017-11-20T03:37:35.580Z,78.80
2017-11-20T03:40:03.114Z,79.10
2017-11-20T03:42:30.655Z,79.10
2017-11-20T03:44:58.180Z,78.80
2017-11-20T03:47:26.480Z,78.70
2017-11-20T03:49:54.033Z,78.20
2017-11-20T03:52:21.556Z,78.30
2017-11-20T03:54:49.089Z,78.20
2017-11-20T03:57:16.645Z,78.50
2017-11-20T03:59:44.169Z,78.30
2017-11-20T04:02:11.697Z,77.90
2017-11-20T04:04:39.253Z,78.60
2017-11-20T04:07:07.540Z,79.00
2017-11-20T04:09:35.825Z,79.60
2017-11-20T04:12:03.368Z,78.90
2017-11-20T04:14:31.660Z,79.10
2017-11-20T04:16:59.189Z,78.40
2017-11-20T04:19:26.736Z,79.70
2017-11-20T04:21:54.252Z,79.40
2017-11-20T04:24:21.774Z,79.90
2017-11-20T04:26:49.330Z,80.20
2017-11-20T04:29:16.858Z,79.90
2017-11-20T04:31:44.386Z,79.50
2017-11-20T04:34:12.696Z,79.60
2017-11-20T04:36:40.213Z,80.00
2017-11-20T04:39:07.744Z,79.80
2017-11-20T04:41:36.064Z,80.00
2017-11-20T04:44:03.597Z,79.00
2017-11-20T04:46:31.120Z,79.50
2017-11-20T04:48:58.675Z,79.60
2017-11-20T04:51:26.193Z,79.60
2017-11-20T04:53:53.712Z,79.70
2017-11-20T04:56:21.253Z,79.20
2017-11-20T04:58:48.772Z,78.80
2017-11-20T05:01:16.305Z,78.50
2017-11-20T05:03:43.860Z,79.10
2017-11-20T05:06:11.410Z,78.80
2017-11-20T05:08:38.941Z,78.90
2017-11-20T05:11:06.501Z,78.80
2017-11-20T05:13:34.020Z,79.30
2017-11-20T05:16:01.541Z,80.10
2017-11-20T05:18:29.084Z,79.60
2017-11-20T05:20:56.617Z,79.50
2017-11-20T05:23:24.157Z,78.80
2017-11-20T05:25:52.508Z,79.50
2017-11-20T05:28:20.029Z,79.20
2017-11-20T05:30:48.302Z,79.40
2017-11-20T05:33:16.439Z,79.40
2017-11-20T05:35:45.113Z,79.60
2017-11-20T05:38:13.559Z,78.90
2017-11-20T05:40:42.711Z,80.60
2017-11-20T05:43:10.291Z,80.10
2017-11-20T05:45:37.818Z,80.00
2017-11-20T05:48:05.375Z,80.90
2017-11-20T05:50:32.921Z,79.60
2017-11-20T05:53:00.444Z,80.00
2017-11-20T05:55:27.991Z,80.80
2017-11-20T05:57:55.511Z,81.30
2017-11-20T06:00:23.798Z,81.30
2017-11-20T06:02:51.344Z,81.70
2017-11-20T06:05:18.906Z,81.20
2017-11-20T06:07:46.443Z,81.50
2017-11-20T06:10:13.994Z,82.60
2017-11-20T06:12:41.526Z,81.20
2017-11-20T06:15:09.058Z,80.50
2017-11-20T06:17:36.606Z,81.00
2017-11-20T06:20:04.351Z,81.10
2017-11-20T06:22:31.874Z,80.80
2017-11-20T06:24:59.423Z,80.30
2017-11-20T06:27:26.959Z,80.50
2017-11-20T06:29:54.479Z,80.70
2017-11-20T06:32:22.029Z,80.50
2017-11-20T06:34:50.328Z,81.40
2017-11-20T06:37:17.850Z,80.70
2017-11-20T06:39:45.397Z,81.10
2017-11-20T06:42:12.953Z,80.90
2017-11-20T06:44:40.500Z,81.20
2017-11-20T06:47:08.818Z,81.10
2017-11-20T06:49:36.580Z,80.90
2017-11-20T06:52:04.102Z,80.50
2017-11-20T06:54:31.673Z,81.00
2017-11-20T06:56:59.192Z,81.00
2017-11-20T06:59:26.713Z,80.70
2017-11-20T07:01:54.267Z,81.10
2017-11-20T07:04:22.804Z,81.70
2017-11-20T07:06:50.382Z,81.40
2017-11-20T07:09:17.937Z,80.80
2017-11-20T07:11:45.456Z,81.00
2017-11-20T07:14:12.996Z,81.50
2017-11-20T07:16:40.572Z,81.10
2017-11-20T07:19:08.104Z,80.70
2017-11-20T07:21:35.627Z,81.00
2017-11-20T07:24:03.175Z,80.40
2017-11-20T07:26:42.460Z,81.20
2017-11-20T07:29:21.719Z,81.00
2017-11-20T07:31:49.245Z,80.20
2017-11-20T07:34:29.384Z,81.70
2017-11-20T07:37:21.515Z,81.50
2017-11-20T07:40:00.902Z,80.60
2017-11-20T07:42:28.449Z,81.70
2017-11-20T07:44:55.980Z,81.60
2017-11-20T07:47:24.290Z,81.60
2017-11-20T07:49:51.920Z,80.80
2017-11-20T07:52:19.456Z,81.00
2017-11-20T07:54:47.016Z,81.20
2017-11-20T07:57:14.540Z,81.00
2017-11-20T07:59:42.071Z,80.60
2017-11-20T08:02:10.384Z,81.10
2017-11-20T08:04:37.913Z,80.00
2017-11-20T08:07:05.820Z,80.50
2017-11-20T08:09:33.369Z,80.40
2017-11-20T08:12:01.664Z,81.70
2017-11-20T08:14:29.188Z,80.30
2017-11-20T08:16:57.515Z,80.90
2017-11-20T08:19:25.058Z,80.70
2017-11-20T08:21:52.593Z,79.60
2017-11-20T08:24:20.155Z,80.00
2017-11-20T08:26:47.694Z,80.00
2017-11-20T08:29:15.255Z,80.50
2017-11-20T08:31:42.820Z,80.30
2017-11-20T08:34:11.116Z,80.00
2017-11-20T08:36:38.645Z,81.00
2017-11-20T08:39:06.210Z,81.20
2017-11-20T08:41:33.736Z,80.90
2017-11-20T08:44:01.276Z,80.60
2017-11-20T08:46:28.829Z,80.20
2017-11-20T08:48:56.356Z,80.30
2017-11-20T08:51:23.900Z,80.50
2017-11-20T08:53:51.449Z,81.10
2017-11-20T08:56:18.984Z,80.90
2017-11-20T08:58:47.281Z,81.70
2017-11-20T09:01:14.830Z,80.90
2017-11-20T09:03:42.357Z,80.90
2017-11-20T09:06:09.894Z,80.40
2017-11-20T09:08:37.454Z,80.80
2017-11-20T09:11:04.981Z,80.40
2017-11-20T09:13:32.503Z,80.60
2017-11-20T09:16:00.822Z,79.90
2017-11-20T09:18:28.369Z,79.90
2017-11-20T09:20:55.909Z,80.00
2017-11-20T09:23:23.493Z,79.40
2017-11-20T09:25:51.025Z,80.20
2017-11-20T09:28:18.552Z,79.70
2017-11-20T09:30:46.101Z,80.70
2017-11-20T09:33:13.631Z,79.30
2017-11-20T09:35:41.157Z,79.30
2017-11-20T09:38:08.705Z,78.50
2017-11-20T09:40:36.237Z,79.20
2017-11-20T09:43:03.770Z,79.00
2017-11-20T09:45:31.329Z,79.10
2017-11-20T09:47:58.856Z,79.70
2017-11-20T09:50:27.258Z,80.00
2017-11-20T09:52:54.920Z,80.10
2017-11-20T09:55:22.466Z,80.40
2017-11-20T09:57:50.716Z,80.70
2017-11-20T10:00:18.274Z,82.20
2017-11-20T10:02:45.829Z,80.60
2017-11-20T10:05:13.369Z,80.70
2017-11-20T10:07:40.916Z,79.90
2017-11-20T10:10:08.441Z,80.70
2017-11-20T10:12:35.968Z,80.80
2017-11-20T10:15:03.540Z,81.60
2017-11-20T10:17:31.080Z,81.50
2017-11-20T10:19:58.612Z,81.80
2017-11-20T10:22:26.174Z,82.00
2017-11-20T10:24:53.711Z,83.10
2017-11-20T10:27:21.263Z,82.30
2017-11-20T10:29:48.830Z,81.80
2017-11-20T10:32:16.374Z,81.10
2017-11-20T10:34:43.933Z,81.00
2017-11-20T10:37:11.493Z,80.90
2017-11-20T10:39:39.785Z,81.60
2017-11-20T10:42:07.325Z,81.30
2017-11-20T10:44:34.902Z,80.80
2017-11-20T10:47:02.486Z,80.00
2017-11-20T10:49:30.776Z,79.50
2017-11-20T10:51:58.328Z,78.60
2017-11-20T10:54:25.869Z,78.60
2017-11-20T10:56:53.403Z,79.30
2017-11-20T10:59:20.963Z,80.70
2017-11-20T11:01:48.508Z,79.80
2017-11-20T11:04:16.027Z,80.60
2017-11-20T11:06:43.572Z,80.80
2017-11-20T11:09:11.106Z,80.40
2017-11-20T11:11:38.656Z,80.60
2017-11-20T11:14:06.218Z,80.90
2017-11-20T11:16:33.757Z,80.00
2017-11-20T11:19:01.297Z,79.90
2017-11-20T11:21:28.844Z,80.10
2017-11-20T11:23:56.377Z,79.60
2017-11-20T11:26:23.903Z,80.50
2017-11-20T11:28:52.221Z,82.10
2017-11-20T11:31:19.752Z,81.20
2017-11-20T11:33:47.282Z,82.10
2017-11-20T11:36:16.540Z,81.80
2017-11-20T11:38:42.404Z,81.70
2017-11-20T11:41:09.925Z,81.00
2017-11-20T11:43:37.473Z,80.80
2017-11-20T11:46:05.034Z,80.90
2017-11-20T11:48:32.578Z,80.10
2017-11-20T11:51:00.137Z,80.00
2017-11-20T11:53:27.666Z,80.90
2017-11-20T11:55:55.283Z,79.20
2017-11-20T11:58:22.840Z,79.60
2017-11-20T12:00:50.368Z,79.20
2017-11-20T12:03:17.901Z,79.50
2017-11-20T12:05:46.225Z,78.80
2017-11-20T12:08:13.763Z,78.30
2017-11-20T12:10:41.296Z,78.40
2017-11-20T12:13:08.852Z,77.70
2017-11-20T12:15:36.390Z,76.90
2017-11-20T12:18:03.928Z,76.50
2017-11-20T12:20:31.490Z,76.30
2017-11-20T12:22:59.036Z,76.50
2017-11-20T12:25:26.561Z,75.20
2017-11-20T12:27:54.107Z,75.60
2017-11-20T12:30:21.637Z,75.20
2017-11-20T12:32:49.177Z,76.30
2017-11-20T12:35:17.491Z,78.20
2017-11-20T12:37:45.021Z,77.20
2017-11-20T12:40:12.552Z,77.80
2017-11-20T12:42:40.119Z,78.60
2017-11-20T12:45:07.642Z,78.60
2017-11-20T12:47:35.173Z,78.50
2017-11-20T12:50:02.750Z,77.90
2017-11-20T12:52:30.275Z,78.00
2017-11-20T12:54:57.805Z,79.10
2017-11-20T12:57:25.394Z,78.80
2017-11-20T12:59:52.908Z,79.20
2017-11-20T13:02:20.452Z,78.60
2017-11-20T13:04:48.000Z,78.10
2017-11-20T13:07:15.516Z,78.10
2017-11-20T13:09:43.042Z,78.00
2017-11-20T13:12:10.584Z,78.10
2017-11-20T13:14:38.117Z,78.40
2017-11-20T13:17:06.446Z,78.80
2017-11-20T13:19:33.997Z,78.10
2017-11-20T13:22:01.539Z,78.90
2017-11-20T13:24:29.061Z,79.30
2017-11-20T13:26:56.617Z,78.60
2017-11-20T13:29:24.154Z,79.60
2017-11-20T13:31:51.685Z,78.90
2017-11-20T13:34:19.247Z,79.70
2017-11-20T13:36:46.768Z,78.40
2017-11-20T13:39:14.297Z,78.60
2017-11-20T13:41:41.860Z,79.00
2017-11-20T13:44:09.394Z,78.40
2017-11-20T13:46:36.932Z,78.50
2017-11-20T13:49:04.476Z,79.40
2017-11-20T13:51:32.005Z,79.70
2017-11-20T13:54:00.297Z,80.10
2017-11-20T13:56:27.844Z,79.80
2017-11-20T13:58:55.378Z,79.10
2017-11-20T14:01:22.945Z,79.20
2017-11-20T14:03:50.497Z,80.50
2017-11-20T14:06:30.732Z,79.40
2017-11-20T14:08:58.284Z,80.20
2017-11-20T14:11:25.908Z,80.70
2017-11-20T14:13:53.424Z,80.90
2017-11-20T14:16:21.741Z,81.20
2017-11-20T14:18:49.306Z,80.50
2017-11-20T14:21:17.172Z,80.60
2017-11-20T14:23:45.490Z,82.80
2017-11-20T14:26:13.038Z,81.60
2017-11-20T14:28:40.837Z,81.30
2017-11-20T14:31:08.988Z,81.90
2017-11-20T14:33:37.297Z,82.60
2017-11-20T14:36:04.818Z,81.00
2017-11-20T14:38:32.364Z,81.30
2017-11-20T14:40:59.885Z,81.20
2017-11-20T14:43:27.424Z,81.50
2017-11-20T14:45:55.800Z,82.20
2017-11-20T14:48:24.117Z,81.30
2017-11-20T14:50:51.657Z,82.90
2017-11-20T14:53:26.995Z,82.10
2017-11-20T14:55:54.612Z,81.60
2017-11-20T14:58:22.405Z,82.40
2017-11-20T15:00:50.848Z,83.80
2017-11-20T15:03:18.473Z,82.90
2017-11-20T15:05:46.080Z,82.80
2017-11-20T15:08:13.643Z,84.20
2017-11-20T15:10:41.179Z,83.60
2017-11-20T15:13:08.713Z,84.50
2017-11-20T15:15:36.288Z,84.30
2017-11-20T15:18:03.861Z,84.60
2017-11-20T15:20:31.411Z,84.30
2017-11-20T15:23:12.161Z,84.60
2017-11-20T15:25:52.644Z,84.90
2017-11-20T15:31:03.944Z,88.00
2017-11-20T15:33:31.493Z,87.40
2017-11-20T15:35:59.021Z,87.90
2017-11-20T15:38:26.556Z,87.80
2017-11-20T15:40:54.152Z,87.90
2017-11-20T15:43:21.697Z,87.90
2017-11-20T15:45:49.232Z,88.10
2017-11-20T15:48:16.794Z,88.10
2017-11-20T15:50:44.327Z,88.40
2017-11-20T15:53:11.862Z,88.90
2017-11-20T15:55:39.421Z,89.80
2017-11-20T15:58:06.961Z,89.60
2017-11-20T16:00:34.500Z,90.00
2017-11-20T16:03:03.696Z,89.50
2017-11-20T16:05:31.246Z,89.90
2017-11-20T16:07:58.780Z,89.90
2017-11-20T16:10:26.378Z,90.30
2017-11-20T16:12:54.678Z,90.70
2017-11-20T16:15:22.220Z,90.60
2017-11-20T16:17:49.794Z,90.30
2017-11-20T16:20:17.334Z,90.70
2017-11-20T16:22:49.009Z,90.30
2017-11-20T16:25:16.833Z,90.30
2017-11-20T16:27:44.386Z,90.60
2017-11-20T16:30:11.921Z,90.70
2017-11-20T16:32:38.271Z,91.20
2017-11-20T16:35:05.329Z,91.00
2017-11-20T16:37:31.652Z,91.10
2017-11-20T16:39:57.984Z,91.40
2017-11-20T16:43:01.790Z,91.40
2017-11-20T16:45:34.491Z,91.20
2017-11-20T16:48:07.729Z,91.50
2017-11-20T16:50:40.144Z,91.40
2017-11-20T16:53:12.805Z,91.50
2017-11-20T16:55:46.125Z,91.40
2017-11-20T16:58:32.392Z,91.80
2017-11-20T17:01:05.658Z,92.00
2017-11-20T17:03:38.145Z,91.60
2017-11-20T17:06:11.557Z,91.70
2017-11-20T17:08:44.917Z,91.60
2017-11-20T17:11:18.304Z,91.80
2017-11-20T17:13:51.606Z,92.00
2017-11-20T17:16:24.817Z,92.10
2017-11-20T17:18:58.265Z,92.40
2017-11-20T17:21:31.799Z,92.20
2017-11-20T17:24:05.118Z,92.50
2017-11-20T17:26:38.504Z,92.30
2017-11-20T17:29:11.221Z,92.10
2017-11-20T17:31:44.509Z,92.50
2017-11-20T17:34:17.124Z,92.20
2017-11-20T17:36:49.541Z,92.30
2017-11-20T17:39:23.199Z,92.30
2017-11-20T17:41:56.259Z,92.50
2017-11-20T17:44:30.309Z,92.80
2017-11-20T17:47:03.895Z,92.90
2017-11-20T17:49:36.729Z,92.70
2017-11-20T17:52:10.935Z,93.10
2017-11-20T17:54:44.097Z,93.00
2017-11-20T17:57:17.280Z,92.70
2017-11-20T17:59:50.709Z,92.90
2017-11-20T18:02:23.795Z,92.90
2017-11-20T18:04:56.461Z,93.40
2017-11-20T18:07:29.774Z,92.90
2017-11-20T18:10:03.921Z,93.20
2017-11-20T18:12:37.436Z,93.20
2017-11-20T18:15:10.014Z,93.00
2017-11-20T18:17:42.656Z,93.00
2017-11-20T18:20:15.393Z,93.00
2017-11-20T18:22:48.539Z,93.30
2017-11-20T18:25:21.815Z,93.00
2017-11-20T18:27:55.262Z,92.80
2017-11-20T18:30:27.937Z,93.10
2017-11-20T18:33:02.299Z,93.30
2017-11-20T18:35:34.859Z,93.30
2017-11-20T18:38:08.532Z,93.20
2017-11-20T18:40:41.609Z,93.40
2017-11-20T18:43:15.719Z,93.70
2017-11-20T18:45:48.350Z,93.30
2017-11-20T18:48:21.855Z,93.70
2017-11-20T18:50:55.873Z,94.10
2017-11-20T18:53:29.166Z,93.40
2017-11-20T18:56:01.801Z,93.60
2017-11-20T18:58:35.874Z,93.90
2017-11-20T19:01:20.533Z,93.60
2017-11-20T19:04:06.828Z,93.90
2017-11-20T19:06:51.553Z,93.40
2017-11-20T19:09:25.441Z,93.10
2017-11-20T19:11:58.242Z,93.60
2017-11-20T19:14:31.993Z,93.60
2017-11-20T19:17:05.380Z,93.50
2017-11-20T19:19:37.923Z,93.40
2017-11-20T19:22:12.012Z,93.60
2017-11-20T19:24:44.655Z,93.30
2017-11-20T19:27:17.057Z,93.40
2017-11-20T19:29:50.312Z,93.30
2017-11-20T19:32:24.292Z,93.50
2017-11-20T19:34:56.924Z,93.30
2017-11-20T19:37:29.533Z,93.20
2017-11-20T19:40:03.645Z,93.70
2017-11-20T19:42:37.050Z,93.90
2017-11-20T19:45:09.837Z,93.30
2017-11-20T19:47:43.201Z,93.70
2017-11-20T19:50:15.793Z,93.30
2017-11-20T19:52:49.737Z,93.90
2017-11-20T19:55:23.338Z,93.90
2017-11-20T19:57:55.899Z,93.60
2017-11-20T20:00:28.370Z,93.50
2017-11-20T20:03:01.653Z,93.40
2017-11-20T20:05:35.626Z,93.80
2017-11-20T20:08:08.993Z,93.80
2017-11-20T20:10:41.741Z,93.60
2017-11-20T20:13:15.035Z,93.40
2017-11-20T20:15:54.585Z,93.50
2017-11-20T20:18:27.940Z,93.60
2017-11-20T20:21:00.670Z,93.00
2017-11-20T20:23:33.708Z,93.50
2017-11-20T20:26:06.392Z,93.00
2017-11-20T20:28:39.428Z,93.10
2017-11-20T20:31:12.277Z,92.90
2017-11-20T20:33:46.119Z,93.30
2017-11-20T20:36:19.313Z,93.00
2017-11-20T20:38:51.784Z,92.80
2017-11-20T20:41:26.211Z,92.90
2017-11-20T20:43:59.561Z,92.80
2017-11-20T20:46:32.930Z,92.00
2017-11-20T20:49:06.401Z,92.20
2017-11-20T20:51:39.111Z,92.20
2017-11-20T20:54:12.342Z,92.20
2017-11-20T20:56:45.697Z,92.00
2017-11-20T20:59:18.901Z,92.20
2017-11-20T21:01:52.155Z,91.70
2017-11-20T21:04:25.337Z,92.20
2017-11-20T21:06:58.882Z,91.90
2017-11-20T21:09:37.761Z,91.70
2017-11-20T21:12:17.077Z,91.70
2017-11-20T21:14:50.186Z,92.20
2017-11-20T21:17:22.924Z,91.60
2017-11-20T21:19:55.232Z,91.60
2017-11-20T21:22:28.506Z,91.90
2017-11-20T21:25:01.671Z,91.90
2017-11-20T21:27:34.323Z,91.60
2017-11-20T21:30:07.428Z,91.50
2017-11-20T21:32:40.813Z,91.20
2017-11-20T21:35:14.306Z,91.40
2017-11-20T21:37:46.954Z,91.20
2017-11-20T21:40:20.236Z,90.90
2017-11-20T21:42:52.918Z,91.00
2017-11-20T21:45:26.224Z,90.90
2017-11-20T21:48:01.315Z,91.10
2017-11-20T21:50:35.278Z,90.90
2017-11-20T21:53:09.249Z,90.50
2017-11-20T21:55:43.640Z,90.90
2017-11-20T21:58:16.095Z,91.20
2017-11-20T22:00:48.481Z,91.20
2017-11-20T22:03:21.602Z,91.60
2017-11-20T22:05:54.233Z,90.90
2017-11-20T22:08:26.702Z,91.10
2017-11-20T22:11:00.877Z,91.10
2017-11-20T22:13:33.726Z,90.90
2017-11-20T22:16:07.482Z,91.20
2017-11-20T22:18:40.896Z,91.20
2017-11-20T22:21:13.918Z,90.80
2017-11-20T22:23:46.848Z,91.00
2017-11-20T22:26:20.203Z,91.20
2017-11-20T22:28:53.627Z,91.20
2017-11-20T22:31:26.910Z,91.20
2017-11-20T22:33:59.506Z,91.00
2017-11-20T22:36:32.717Z,91.10
2017-11-20T22:39:05.248Z,90.90
2017-11-20T22:41:38.549Z,90.60
2017-11-20T22:44:12.525Z,91.30
2017-11-20T22:46:46.280Z,91.50
2017-11-20T22:49:19.694Z,91.60
2017-11-20T22:51:52.374Z,91.40
2017-11-20T22:54:25.387Z,91.20
2017-11-20T22:56:58.804Z,91.00
2017-11-20T22:59:31.324Z,90.80
2017-11-20T23:02:05.440Z,91.10
2017-11-20T23:04:38.958Z,91.20
2017-11-20T23:07:11.669Z,90.70
2017-11-20T23:09:44.830Z,90.90
2017-11-20T23:12:17.544Z,90.50
2017-11-20T23:14:50.856Z,90.50
2017-11-20T23:17:24.180Z,90.50
2017-11-20T23:19:56.601Z,90.20
2017-11-20T23:22:29.985Z,90.70
2017-11-20T23:25:02.446Z,90.10
2017-11-20T23:27:35.577Z,90.50
2017-11-20T23:30:08.337Z,90.10
2017-11-20T23:32:41.484Z,90.50
2017-11-20T23:35:14.248Z,90.10
2017-11-20T23:37:46.758Z,90.10
2017-11-20T23:40:20.018Z,89.80
2017-11-20T23:42:52.424Z,90.00
2017-11-20T23:45:26.299Z,90.00
2017-11-20T23:47:58.940Z,90.60
2017-11-20T23:50:31.679Z,89.60
2017-11-20T23:53:05.480Z,90.30
2017-11-20T23:55:38.597Z,89.70
2017-11-20T23:58:11.358Z,89.80
